sensor_id;sensor_type;location;lat;lon;timestamp;pressure;altitude;pressure_sealevel;temperature;humidity
28701;BME280;15877;52.344;16.790;2023-03-01T08:19:48;101987.19;;;3.77;64.38
28701;BME280;15877;52.344;16.790;2023-03-01T08:22:51;101989.08;;;3.97;62.65
28701;BME280;15877;52.344;16.790;2023-03-01T08:25:47;101986.77;;;4.07;60.80
28701;BME280;15877;52.344;16.790;2023-03-01T08:28:26;101985.65;;;4.14;60.26
28701;BME280;15877;52.344;16.790;2023-03-01T08:31:17;101983.80;;;4.20;60.12
28701;BME280;15877;52.344;16.790;2023-03-01T08:34:07;101984.07;;;4.28;60.47
28701;BME280;15877;52.344;16.790;2023-03-01T08:37:09;101988.48;;;4.36;60.68
28701;BME280;15877;52.344;16.790;2023-03-01T08:39:57;101985.60;;;4.48;59.45
28701;BME280;15877;52.344;16.790;2023-03-01T08:42:41;101989.83;;;4.49;59.71
28701;BME280;15877;52.344;16.790;2023-03-01T08:45:27;101985.42;;;4.56;59.24
28701;BME280;15877;52.344;16.790;2023-03-01T08:48:28;101982.91;;;4.54;60.91
28701;BME280;15877;52.344;16.790;2023-03-01T08:51:25;101983.08;;;4.61;61.76
28701;BME280;15877;52.344;16.790;2023-03-01T08:54:23;101980.60;;;4.61;62.57
28701;BME280;15877;52.344;16.790;2023-03-01T08:57:16;101963.55;;;4.59;62.47
28701;BME280;15877;52.344;16.790;2023-03-01T09:00:05;101974.28;;;4.79;61.35
28701;BME280;15877;52.344;16.790;2023-03-01T09:02:53;101954.11;;;4.76;60.87
28701;BME280;15877;52.344;16.790;2023-03-01T09:05:28;101971.83;;;4.97;60.45
28701;BME280;15877;52.344;16.790;2023-03-01T09:08:11;101964.14;;;5.10;59.83
28701;BME280;15877;52.344;16.790;2023-03-01T09:10:51;101968.83;;;5.04;59.70
28701;BME280;15877;52.344;16.790;2023-03-01T09:13:34;101965.65;;;5.14;58.33
28701;BME280;15877;52.344;16.790;2023-03-01T09:16:22;101958.27;;;5.25;57.34
28701;BME280;15877;52.344;16.790;2023-03-01T09:18:57;101960.80;;;5.35;57.38
28701;BME280;15877;52.344;16.790;2023-03-01T09:21:38;101963.30;;;5.48;57.33
28701;BME280;15877;52.344;16.790;2023-03-01T09:24:24;101958.73;;;5.36;57.98
28701;BME280;15877;52.344;16.790;2023-03-01T09:27:04;101947.05;;;5.43;58.06
28701;BME280;15877;52.344;16.790;2023-03-01T09:29:58;101945.77;;;5.43;57.68
28701;BME280;15877;52.344;16.790;2023-03-01T09:32:36;101926.66;;;5.43;57.27
28701;BME280;15877;52.344;16.790;2023-03-01T09:38:42;101944.83;;;5.79;55.35
28701;BME280;15877;52.344;16.790;2023-03-01T09:41:26;101947.52;;;5.94;54.94
28701;BME280;15877;52.344;16.790;2023-03-01T09:44:05;101950.41;;;5.97;53.53
28701;BME280;15877;52.344;16.790;2023-03-01T09:46:43;101949.14;;;6.01;53.86
28701;BME280;15877;52.344;16.790;2023-03-01T09:49:17;101950.44;;;6.12;52.95
28701;BME280;15877;52.344;16.790;2023-03-01T09:52:12;101949.13;;;6.26;52.43
28701;BME280;15877;52.344;16.790;2023-03-01T09:54:49;101949.82;;;6.38;51.99
28701;BME280;15877;52.344;16.790;2023-03-01T09:57:39;101952.78;;;6.46;52.28
28701;BME280;15877;52.344;16.790;2023-03-01T10:00:21;101944.80;;;6.45;51.69
28701;BME280;15877;52.344;16.790;2023-03-01T10:02:59;101948.20;;;6.56;50.68
28701;BME280;15877;52.344;16.790;2023-03-01T10:05:41;101944.63;;;6.72;50.77
28701;BME280;15877;52.344;16.790;2023-03-01T10:08:38;101944.48;;;6.84;50.50
28701;BME280;15877;52.344;16.790;2023-03-01T10:11:20;101944.37;;;6.94;50.81
28701;BME280;15877;52.344;16.790;2023-03-01T10:13:59;101944.54;;;6.99;50.00
28701;BME280;15877;52.344;16.790;2023-03-01T10:16:40;101945.62;;;7.01;50.13
28701;BME280;15877;52.344;16.790;2023-03-01T10:19:17;101942.59;;;7.06;50.01
28701;BME280;15877;52.344;16.790;2023-03-01T10:21:50;101942.75;;;7.24;50.07
28701;BME280;15877;52.344;16.790;2023-03-01T10:24:21;101941.35;;;7.34;49.41
28701;BME280;15877;52.344;16.790;2023-03-01T10:26:56;101940.06;;;7.32;49.09
28701;BME280;15877;52.344;16.790;2023-03-01T10:29:37;101936.75;;;7.37;48.83
28701;BME280;15877;52.344;16.790;2023-03-01T10:32:09;101939.29;;;7.55;48.75
28701;BME280;15877;52.344;16.790;2023-03-01T10:34:41;101933.50;;;7.56;48.64
28701;BME280;15877;52.344;16.790;2023-03-01T10:37:15;101927.68;;;7.70;48.82
28701;BME280;15877;52.344;16.790;2023-03-01T10:39:57;101926.64;;;7.82;48.29
28701;BME280;15877;52.344;16.790;2023-03-01T10:42:29;101922.39;;;7.89;47.77
28701;BME280;15877;52.344;16.790;2023-03-01T10:45:16;101923.23;;;7.91;47.95
28701;BME280;15877;52.344;16.790;2023-03-01T10:48:04;101922.20;;;7.93;47.61
28701;BME280;15877;52.344;16.790;2023-03-01T10:50:34;101922.70;;;7.97;47.76
28701;BME280;15877;52.344;16.790;2023-03-01T10:53:23;101918.01;;;7.90;48.05
28701;BME280;15877;52.344;16.790;2023-03-01T10:56:03;101898.15;;;7.87;48.54
28701;BME280;15877;52.344;16.790;2023-03-01T10:58:36;101905.67;;;7.92;48.41
28701;BME280;15877;52.344;16.790;2023-03-01T11:01:25;101907.42;;;8.25;48.17
28701;BME280;15877;52.344;16.790;2023-03-01T11:04:11;101909.04;;;8.41;47.54
28701;BME280;15877;52.344;16.790;2023-03-01T11:06:43;101905.31;;;8.44;46.91
28701;BME280;15877;52.344;16.790;2023-03-01T11:09:18;101903.48;;;8.35;46.74
28701;BME280;15877;52.344;16.790;2023-03-01T11:11:52;101899.05;;;8.51;47.20
28701;BME280;15877;52.344;16.790;2023-03-01T11:14:24;101895.83;;;8.56;47.16
28701;BME280;15877;52.344;16.790;2023-03-01T11:17:04;101896.75;;;8.72;47.57
28701;BME280;15877;52.344;16.790;2023-03-01T11:19:35;101893.19;;;8.63;47.90
28701;BME280;15877;52.344;16.790;2023-03-01T11:22:10;101885.45;;;8.75;47.76
28701;BME280;15877;52.344;16.790;2023-03-01T11:24:45;101888.39;;;8.92;47.65
28701;BME280;15877;52.344;16.790;2023-03-01T11:27:24;101879.43;;;9.00;47.60
28701;BME280;15877;52.344;16.790;2023-03-01T11:29:55;101884.20;;;9.17;46.91
28701;BME280;15877;52.344;16.790;2023-03-01T11:32:29;101876.80;;;9.24;47.06
28701;BME280;15877;52.344;16.790;2023-03-01T11:35:14;101868.09;;;9.42;47.05
28701;BME280;15877;52.344;16.790;2023-03-01T11:38:15;101865.73;;;9.50;47.03
28701;BME280;15877;52.344;16.790;2023-03-01T11:40:51;101861.40;;;9.50;46.94
28701;BME280;15877;52.344;16.790;2023-03-01T11:43:28;101861.79;;;9.52;47.06
28701;BME280;15877;52.344;16.790;2023-03-01T11:46:21;101864.90;;;9.54;46.95
28701;BME280;15877;52.344;16.790;2023-03-01T11:49:07;101865.92;;;9.60;47.00
28701;BME280;15877;52.344;16.790;2023-03-01T11:51:48;101864.13;;;9.70;47.10
28701;BME280;15877;52.344;16.790;2023-03-01T11:54:33;101864.23;;;9.74;46.90
28701;BME280;15877;52.344;16.790;2023-03-01T11:57:14;101857.75;;;9.67;46.84
28701;BME280;15877;52.344;16.790;2023-03-01T12:00:04;101859.29;;;9.69;46.68
28701;BME280;15877;52.344;16.790;2023-03-01T12:08:42;101850.77;;;9.88;46.62
28701;BME280;15877;52.344;16.790;2023-03-01T12:11:25;101850.27;;;9.67;47.25
28701;BME280;15877;52.344;16.790;2023-03-01T12:14:13;101848.73;;;9.69;47.92
28701;BME280;15877;52.344;16.790;2023-03-01T12:17:02;101844.06;;;9.96;47.27
28701;BME280;15877;52.344;16.790;2023-03-01T12:19:41;101839.54;;;10.03;47.02
28701;BME280;15877;52.344;16.790;2023-03-01T12:22:28;101836.89;;;9.97;47.17
28701;BME280;15877;52.344;16.790;2023-03-01T12:25:17;101836.18;;;10.05;47.40
28701;BME280;15877;52.344;16.790;2023-03-01T12:31:11;101822.87;;;10.10;46.48
28701;BME280;15877;52.344;16.790;2023-03-01T12:33:53;101820.20;;;10.12;46.67
28701;BME280;15877;52.344;16.790;2023-03-01T12:36:41;101821.48;;;10.13;46.91
28701;BME280;15877;52.344;16.790;2023-03-01T12:39:26;101806.98;;;10.20;46.49
28701;BME280;15877;52.344;16.790;2023-03-01T12:42:10;101805.06;;;10.15;46.73
28701;BME280;15877;52.344;16.790;2023-03-01T12:44:55;101807.23;;;10.26;46.74
28701;BME280;15877;52.344;16.790;2023-03-01T12:47:30;101801.56;;;10.16;46.77
28701;BME280;15877;52.344;16.790;2023-03-01T12:50:12;101795.95;;;10.23;47.07
28701;BME280;15877;52.344;16.790;2023-03-01T12:52:51;101778.27;;;10.19;46.98
28701;BME280;15877;52.344;16.790;2023-03-01T12:55:27;101791.98;;;10.43;47.19
28701;BME280;15877;52.344;16.790;2023-03-01T12:58:07;101792.17;;;10.47;46.62
28701;BME280;15877;52.344;16.790;2023-03-01T13:00:51;101792.67;;;10.39;46.47
28701;BME280;15877;52.344;16.790;2023-03-01T13:03:28;101781.73;;;10.18;47.06
28701;BME280;15877;52.344;16.790;2023-03-01T13:06:10;101792.98;;;10.34;47.22
28701;BME280;15877;52.344;16.790;2023-03-01T13:08:48;101791.21;;;10.38;46.93
28701;BME280;15877;52.344;16.790;2023-03-01T13:11:20;101790.89;;;10.42;47.38
28701;BME280;15877;52.344;16.790;2023-03-01T13:13:51;101786.84;;;10.47;46.94
28701;BME280;15877;52.344;16.790;2023-03-01T13:16:40;101785.41;;;10.53;47.35
28701;BME280;15877;52.344;16.790;2023-03-01T13:19:16;101766.23;;;10.37;47.22
28701;BME280;15877;52.344;16.790;2023-03-01T13:21:47;101783.35;;;10.54;46.92
28701;BME280;15877;52.344;16.790;2023-03-01T13:24:29;101770.32;;;10.54;47.19
28701;BME280;15877;52.344;16.790;2023-03-01T13:27:23;101774.61;;;10.58;47.21
28701;BME280;15877;52.344;16.790;2023-03-01T13:29:57;101767.48;;;10.54;47.22
28701;BME280;15877;52.344;16.790;2023-03-01T13:32:33;101757.01;;;10.51;47.57
28701;BME280;15877;52.344;16.790;2023-03-01T13:35:43;101738.05;;;10.41;47.60
28701;BME280;15877;52.344;16.790;2023-03-01T13:38:44;101757.94;;;10.50;47.88
28701;BME280;15877;52.344;16.790;2023-03-01T13:41:16;101757.05;;;10.50;47.95
28701;BME280;15877;52.344;16.790;2023-03-01T13:43:47;101755.09;;;10.52;48.34
28701;BME280;15877;52.344;16.790;2023-03-01T13:46:21;101751.35;;;10.49;47.97
28701;BME280;15877;52.344;16.790;2023-03-01T13:48:57;101749.06;;;10.56;48.10
28701;BME280;15877;52.344;16.790;2023-03-01T13:51:27;101708.50;;;10.25;48.19
28701;BME280;15877;52.344;16.790;2023-03-01T13:53:58;101746.69;;;10.57;48.38
28701;BME280;15877;52.344;16.790;2023-03-01T13:56:38;101740.23;;;10.65;47.88
28701;BME280;15877;52.344;16.790;2023-03-01T13:59:14;101740.45;;;10.74;47.99
28701;BME280;15877;52.344;16.790;2023-03-01T14:01:43;101733.81;;;10.81;47.91
28701;BME280;15877;52.344;16.790;2023-03-01T14:04:21;101730.98;;;10.91;47.92
28701;BME280;15877;52.344;16.790;2023-03-01T14:06:51;101726.96;;;10.78;47.70
28701;BME280;15877;52.344;16.790;2023-03-01T14:09:24;101727.63;;;10.88;47.92
28701;BME280;15877;52.344;16.790;2023-03-01T14:12:06;101729.98;;;10.90;47.56
28701;BME280;15877;52.344;16.790;2023-03-01T14:14:46;101731.81;;;10.82;47.75
28701;BME280;15877;52.344;16.790;2023-03-01T14:20:14;101734.84;;;11.07;47.56
28701;BME280;15877;52.344;16.790;2023-03-01T14:22:46;101735.54;;;11.15;47.22
28701;BME280;15877;52.344;16.790;2023-03-01T14:25:25;101732.52;;;10.92;47.49
28701;BME280;15877;52.344;16.790;2023-03-01T14:28:01;101728.27;;;11.00;47.52
28701;BME280;15877;52.344;16.790;2023-03-01T14:30:42;101730.60;;;10.97;47.36
28701;BME280;15877;52.344;16.790;2023-03-01T14:33:21;101735.33;;;11.07;47.42
28701;BME280;15877;52.344;16.790;2023-03-01T14:35:57;101728.19;;;11.36;47.16
28701;BME280;15877;52.344;16.790;2023-03-01T14:38:36;101723.77;;;11.37;46.90
28701;BME280;15877;52.344;16.790;2023-03-01T14:41:09;101717.75;;;11.31;46.93
28701;BME280;15877;52.344;16.790;2023-03-01T14:43:43;101716.14;;;11.19;47.09
28701;BME280;15877;52.344;16.790;2023-03-01T14:46:21;101721.87;;;11.19;47.17
28701;BME280;15877;52.344;16.790;2023-03-01T14:48:54;101714.79;;;11.28;46.94
28701;BME280;15877;52.344;16.790;2023-03-01T14:51:25;101719.02;;;11.03;47.09
28701;BME280;15877;52.344;16.790;2023-03-01T14:53:54;101720.88;;;10.98;47.19
28701;BME280;15877;52.344;16.790;2023-03-01T14:56:32;101723.22;;;10.89;47.45
28701;BME280;15877;52.344;16.790;2023-03-01T14:59:15;101717.61;;;10.79;47.82
28701;BME280;15877;52.344;16.790;2023-03-01T15:01:58;101714.91;;;10.69;47.90
28701;BME280;15877;52.344;16.790;2023-03-01T15:04:36;101713.56;;;10.64;48.27
28701;BME280;15877;52.344;16.790;2023-03-01T15:07:13;101710.06;;;10.54;48.22
28701;BME280;15877;52.344;16.790;2023-03-01T15:09:44;101691.74;;;10.29;48.37
28701;BME280;15877;52.344;16.790;2023-03-01T15:12:42;101701.41;;;10.32;49.01
28701;BME280;15877;52.344;16.790;2023-03-01T15:15:36;101705.46;;;10.25;49.46
28701;BME280;15877;52.344;16.790;2023-03-01T15:18:17;101707.52;;;10.16;49.24
28701;BME280;15877;52.344;16.790;2023-03-01T15:20:48;101710.54;;;10.06;49.33
28701;BME280;15877;52.344;16.790;2023-03-01T15:23:24;101715.99;;;10.00;49.50
28701;BME280;15877;52.344;16.790;2023-03-01T15:25:56;101715.40;;;9.83;49.86
28701;BME280;15877;52.344;16.790;2023-03-01T15:28:33;101695.36;;;9.63;49.98
28701;BME280;15877;52.344;16.790;2023-03-01T15:31:12;101719.05;;;9.78;49.70
28701;BME280;15877;52.344;16.790;2023-03-01T15:34:09;101714.02;;;9.63;49.81
28701;BME280;15877;52.344;16.790;2023-03-01T15:36:43;101713.42;;;9.55;50.15
28701;BME280;15877;52.344;16.790;2023-03-01T15:39:37;101707.44;;;9.55;50.11
28701;BME280;15877;52.344;16.790;2023-03-01T15:42:10;101706.07;;;9.48;50.38
28701;BME280;15877;52.344;16.790;2023-03-01T15:44:42;101704.40;;;9.39;50.97
28701;BME280;15877;52.344;16.790;2023-03-01T15:47:30;101706.67;;;9.35;50.94
28701;BME280;15877;52.344;16.790;2023-03-01T15:50:01;101702.63;;;9.32;50.93
28701;BME280;15877;52.344;16.790;2023-03-01T15:52:35;101699.27;;;9.30;50.83
28701;BME280;15877;52.344;16.790;2023-03-01T15:55:17;101701.41;;;9.32;50.97
28701;BME280;15877;52.344;16.790;2023-03-01T15:57:59;101700.84;;;9.34;51.01
28701;BME280;15877;52.344;16.790;2023-03-01T16:00:34;101700.51;;;9.29;51.52
28701;BME280;15877;52.344;16.790;2023-03-01T16:03:28;101700.30;;;9.23;52.29
28701;BME280;15877;52.344;16.790;2023-03-01T16:06:05;101694.94;;;9.12;52.86
28701;BME280;15877;52.344;16.790;2023-03-01T16:08:37;101695.88;;;9.08;53.14
28701;BME280;15877;52.344;16.790;2023-03-01T16:11:15;101701.38;;;9.06;53.23
28701;BME280;15877;52.344;16.790;2023-03-01T16:13:46;101702.45;;;9.02;53.22
28701;BME280;15877;52.344;16.790;2023-03-01T16:16:18;101695.89;;;8.97;52.96
28701;BME280;15877;52.344;16.790;2023-03-01T16:19:04;101702.48;;;8.91;53.08
28701;BME280;15877;52.344;16.790;2023-03-01T16:21:35;101699.34;;;8.85;53.37
28701;BME280;15877;52.344;16.790;2023-03-01T16:24:07;101701.54;;;8.80;53.49
28701;BME280;15877;52.344;16.790;2023-03-01T16:26:45;101697.21;;;8.71;53.60
28701;BME280;15877;52.344;16.790;2023-03-01T16:29:30;101699.60;;;8.63;53.91
28701;BME280;15877;52.344;16.790;2023-03-01T16:32:06;101683.75;;;8.46;54.08
28701;BME280;15877;52.344;16.790;2023-03-01T16:34:36;101697.84;;;8.49;54.38
28701;BME280;15877;52.344;16.790;2023-03-01T16:37:06;101687.08;;;8.44;54.56
28701;BME280;15877;52.344;16.790;2023-03-01T16:39:35;101677.34;;;8.39;54.93
28701;BME280;15877;52.344;16.790;2023-03-01T16:42:06;101677.40;;;8.31;55.49
28701;BME280;15877;52.344;16.790;2023-03-01T16:44:36;101675.56;;;8.26;55.62
28701;BME280;15877;52.344;16.790;2023-03-01T16:47:06;101676.80;;;8.20;55.90
28701;BME280;15877;52.344;16.790;2023-03-01T16:49:35;101681.88;;;8.14;56.13
28701;BME280;15877;52.344;16.790;2023-03-01T16:52:05;101680.34;;;8.08;56.50
28701;BME280;15877;52.344;16.790;2023-03-01T16:54:35;101681.27;;;8.04;56.81
28701;BME280;15877;52.344;16.790;2023-03-01T16:57:05;101682.61;;;8.00;56.94
28701;BME280;15877;52.344;16.790;2023-03-01T16:59:36;101669.78;;;7.84;56.88
28701;BME280;15877;52.344;16.790;2023-03-01T17:02:13;101682.80;;;7.86;57.11
28701;BME280;15877;52.344;16.790;2023-03-01T17:04:44;101677.64;;;7.82;57.18
28701;BME280;15877;52.344;16.790;2023-03-01T17:07:13;101678.06;;;7.72;57.75
28701;BME280;15877;52.344;16.790;2023-03-01T17:09:42;101677.71;;;7.61;58.11
28701;BME280;15877;52.344;16.790;2023-03-01T17:12:13;101679.72;;;7.59;57.76
28701;BME280;15877;52.344;16.790;2023-03-01T17:14:43;101685.73;;;7.48;57.89
28701;BME280;15877;52.344;16.790;2023-03-01T17:17:12;101682.27;;;7.40;58.17
28701;BME280;15877;52.344;16.790;2023-03-01T17:19:41;101689.27;;;7.33;58.46
28701;BME280;15877;52.344;16.790;2023-03-01T17:22:12;101687.27;;;7.27;58.35
28701;BME280;15877;52.344;16.790;2023-03-01T17:24:42;101685.50;;;7.20;58.84
28701;BME280;15877;52.344;16.790;2023-03-01T17:27:12;101684.17;;;7.17;58.73
28701;BME280;15877;52.344;16.790;2023-03-01T17:29:41;101678.59;;;7.10;58.67
28701;BME280;15877;52.344;16.790;2023-03-01T17:32:10;101677.24;;;7.06;58.78
28701;BME280;15877;52.344;16.790;2023-03-01T17:34:40;101677.02;;;7.02;58.85
28701;BME280;15877;52.344;16.790;2023-03-01T17:37:09;101681.09;;;6.97;58.61
28701;BME280;15877;52.344;16.790;2023-03-01T17:39:38;101681.73;;;6.92;58.83
28701;BME280;15877;52.344;16.790;2023-03-01T17:42:08;101681.27;;;6.87;58.91
28701;BME280;15877;52.344;16.790;2023-03-01T17:44:39;101681.48;;;6.84;58.73
28701;BME280;15877;52.344;16.790;2023-03-01T17:47:11;101675.55;;;6.78;58.58
28701;BME280;15877;52.344;16.790;2023-03-01T17:49:42;101678.80;;;6.75;58.75
28701;BME280;15877;52.344;16.790;2023-03-01T17:52:12;101678.73;;;6.69;58.95
28701;BME280;15877;52.344;16.790;2023-03-01T17:54:42;101679.40;;;6.61;59.26
28701;BME280;15877;52.344;16.790;2023-03-01T17:57:12;101679.38;;;6.51;59.34
28701;BME280;15877;52.344;16.790;2023-03-01T17:59:42;101666.92;;;6.30;59.61
28701;BME280;15877;52.344;16.790;2023-03-01T18:02:14;101680.27;;;6.31;59.82
28701;BME280;15877;52.344;16.790;2023-03-01T18:04:46;101679.84;;;6.30;59.87
28701;BME280;15877;52.344;16.790;2023-03-01T18:07:17;101675.33;;;6.21;59.85
28701;BME280;15877;52.344;16.790;2023-03-01T18:09:47;101675.92;;;5.98;60.99
28701;BME280;15877;52.344;16.790;2023-03-01T18:12:20;101677.83;;;5.97;61.13
28701;BME280;15877;52.344;16.790;2023-03-01T18:14:51;101672.75;;;5.99;61.06
28701;BME280;15877;52.344;16.790;2023-03-01T18:17:24;101669.67;;;5.99;60.95
28701;BME280;15877;52.344;16.790;2023-03-01T18:19:54;101672.47;;;6.02;60.69
28701;BME280;15877;52.344;16.790;2023-03-01T18:22:25;101670.27;;;6.02;60.40
28701;BME280;15877;52.344;16.790;2023-03-01T18:24:56;101645.44;;;5.87;60.23
28701;BME280;15877;52.344;16.790;2023-03-01T18:27:27;101675.07;;;6.05;60.10
28701;BME280;15877;52.344;16.790;2023-03-01T18:29:58;101678.66;;;6.00;60.22
28701;BME280;15877;52.344;16.790;2023-03-01T18:32:28;101681.60;;;5.98;60.31
28701;BME280;15877;52.344;16.790;2023-03-01T18:34:57;101679.11;;;5.92;60.52
28701;BME280;15877;52.344;16.790;2023-03-01T18:37:26;101675.48;;;5.88;60.74
28701;BME280;15877;52.344;16.790;2023-03-01T18:39:56;101672.35;;;5.81;61.00
28701;BME280;15877;52.344;16.790;2023-03-01T18:42:25;101672.98;;;5.82;60.99
28701;BME280;15877;52.344;16.790;2023-03-01T18:44:55;101674.20;;;5.83;60.69
28701;BME280;15877;52.344;16.790;2023-03-01T18:47:24;101675.38;;;5.85;60.28
28701;BME280;15877;52.344;16.790;2023-03-01T18:49:54;101674.02;;;5.85;60.12
28701;BME280;15877;52.344;16.790;2023-03-01T18:52:23;101676.56;;;5.83;60.22
28701;BME280;15877;52.344;16.790;2023-03-01T18:54:52;101676.20;;;5.81;60.13
28701;BME280;15877;52.344;16.790;2023-03-01T18:57:22;101675.95;;;5.79;60.27
28701;BME280;15877;52.344;16.790;2023-03-01T18:59:51;101672.68;;;5.77;60.53
28701;BME280;15877;52.344;16.790;2023-03-01T19:02:21;101675.76;;;5.74;60.20
28701;BME280;15877;52.344;16.790;2023-03-01T19:04:50;101681.70;;;5.72;60.23
28701;BME280;15877;52.344;16.790;2023-03-01T19:07:20;101678.61;;;5.69;60.39
28701;BME280;15877;52.344;16.790;2023-03-01T19:09:49;101678.80;;;5.67;60.83
28701;BME280;15877;52.344;16.790;2023-03-01T19:12:19;101674.17;;;5.66;61.04
28701;BME280;15877;52.344;16.790;2023-03-01T19:14:48;101678.14;;;5.64;60.87
28701;BME280;15877;52.344;16.790;2023-03-01T19:17:21;101680.09;;;5.56;61.15
28701;BME280;15877;52.344;16.790;2023-03-01T19:19:52;101679.25;;;5.50;61.10
28701;BME280;15877;52.344;16.790;2023-03-01T19:22:21;101700.59;;;5.57;61.13
28701;BME280;15877;52.344;16.790;2023-03-01T19:24:51;101687.59;;;5.46;60.99
28701;BME280;15877;52.344;16.790;2023-03-01T19:27:20;101697.54;;;5.54;61.32
28701;BME280;15877;52.344;16.790;2023-03-01T19:29:49;101698.98;;;5.54;61.60
28701;BME280;15877;52.344;16.790;2023-03-01T19:32:19;101697.30;;;5.52;61.24
28701;BME280;15877;52.344;16.790;2023-03-01T19:34:48;101702.84;;;5.51;61.09
28701;BME280;15877;52.344;16.790;2023-03-01T19:37:17;101703.90;;;5.49;61.38
28701;BME280;15877;52.344;16.790;2023-03-01T19:39:46;101705.42;;;5.48;61.13
28701;BME280;15877;52.344;16.790;2023-03-01T19:42:16;101714.48;;;5.47;61.15
28701;BME280;15877;52.344;16.790;2023-03-01T19:44:46;101718.08;;;5.44;61.16
28701;BME280;15877;52.344;16.790;2023-03-01T19:47:15;101721.77;;;5.43;60.94
28701;BME280;15877;52.344;16.790;2023-03-01T19:49:46;101721.30;;;5.40;61.25
28701;BME280;15877;52.344;16.790;2023-03-01T19:52:15;101725.06;;;5.39;61.49
28701;BME280;15877;52.344;16.790;2023-03-01T19:54:48;101719.05;;;5.37;61.28
28701;BME280;15877;52.344;16.790;2023-03-01T19:57:21;101718.18;;;5.35;60.85
28701;BME280;15877;52.344;16.790;2023-03-01T19:59:51;101717.39;;;5.32;60.90
28701;BME280;15877;52.344;16.790;2023-03-01T20:02:20;101709.48;;;5.31;61.05
28701;BME280;15877;52.344;16.790;2023-03-01T20:04:49;101713.70;;;5.29;60.99
28701;BME280;15877;52.344;16.790;2023-03-01T20:07:19;101711.04;;;5.25;61.10
28701;BME280;15877;52.344;16.790;2023-03-01T20:09:48;101713.16;;;5.20;61.40
28701;BME280;15877;52.344;16.790;2023-03-01T20:12:17;101710.98;;;5.18;61.51
28701;BME280;15877;52.344;16.790;2023-03-01T20:14:46;101714.09;;;5.16;61.46
28701;BME280;15877;52.344;16.790;2023-03-01T20:17:18;101717.93;;;5.15;61.43
28701;BME280;15877;52.344;16.790;2023-03-01T20:19:47;101714.90;;;5.14;61.24
28701;BME280;15877;52.344;16.790;2023-03-01T20:22:17;101723.34;;;5.14;61.06
28701;BME280;15877;52.344;16.790;2023-03-01T20:24:47;101719.45;;;5.08;61.65
28701;BME280;15877;52.344;16.790;2023-03-01T20:27:16;101722.41;;;5.01;62.36
28701;BME280;15877;52.344;16.790;2023-03-01T20:29:47;101721.27;;;5.03;62.13
28701;BME280;15877;52.344;16.790;2023-03-01T20:32:17;101722.55;;;5.02;62.11
28701;BME280;15877;52.344;16.790;2023-03-01T20:34:46;101718.17;;;5.02;62.26
28701;BME280;15877;52.344;16.790;2023-03-01T20:37:15;101722.64;;;5.00;62.13
28701;BME280;15877;52.344;16.790;2023-03-01T20:39:45;101721.80;;;4.96;62.09
28701;BME280;15877;52.344;16.790;2023-03-01T20:42:14;101724.01;;;4.92;62.46
28701;BME280;15877;52.344;16.790;2023-03-01T20:44:43;101723.05;;;4.94;62.46
28701;BME280;15877;52.344;16.790;2023-03-01T20:47:14;101726.05;;;4.91;62.59
28701;BME280;15877;52.344;16.790;2023-03-01T20:49:43;101726.87;;;4.87;62.62
28701;BME280;15877;52.344;16.790;2023-03-01T20:52:12;101724.62;;;4.78;63.01
28701;BME280;15877;52.344;16.790;2023-03-01T20:54:41;101727.15;;;4.78;63.10
28701;BME280;15877;52.344;16.790;2023-03-01T20:57:10;101723.20;;;4.82;63.04
28701;BME280;15877;52.344;16.790;2023-03-01T20:59:40;101718.90;;;4.78;63.10
28701;BME280;15877;52.344;16.790;2023-03-01T21:02:10;101713.55;;;4.74;63.16
28701;BME280;15877;52.344;16.790;2023-03-01T21:04:39;101713.20;;;4.72;63.31
28701;BME280;15877;52.344;16.790;2023-03-01T21:07:08;101695.64;;;4.63;63.10
28701;BME280;15877;52.344;16.790;2023-03-01T21:09:37;101704.56;;;4.75;62.90
28701;BME280;15877;52.344;16.790;2023-03-01T21:12:07;101700.42;;;4.76;62.63
28701;BME280;15877;52.344;16.790;2023-03-01T21:14:37;101695.95;;;4.73;62.65
28701;BME280;15877;52.344;16.790;2023-03-01T21:17:12;101693.14;;;4.73;62.58
28701;BME280;15877;52.344;16.790;2023-03-01T21:20:00;101692.55;;;4.72;62.48
28701;BME280;15877;52.344;16.790;2023-03-01T21:22:47;101689.70;;;4.70;62.41
28701;BME280;15877;52.344;16.790;2023-03-01T21:25:37;101692.87;;;4.68;62.37
28701;BME280;15877;52.344;16.790;2023-03-01T21:28:57;101692.57;;;4.70;62.23
28701;BME280;15877;52.344;16.790;2023-03-01T21:32:58;101683.92;;;4.61;62.39
28701;BME280;15877;52.344;16.790;2023-03-01T21:35:31;101685.73;;;4.53;62.49
28701;BME280;15877;52.344;16.790;2023-03-01T21:38:03;101694.59;;;4.49;62.61
28701;BME280;15877;52.344;16.790;2023-03-01T21:40:36;101692.46;;;4.46;62.78
28701;BME280;15877;52.344;16.790;2023-03-01T21:43:09;101695.17;;;4.46;62.72
28701;BME280;15877;52.344;16.790;2023-03-01T21:45:41;101694.88;;;4.44;62.78
28701;BME280;15877;52.344;16.790;2023-03-01T21:48:14;101691.10;;;4.45;62.75
28701;BME280;15877;52.344;16.790;2023-03-01T21:50:54;101673.59;;;4.38;62.71
28701;BME280;15877;52.344;16.790;2023-03-01T21:53:29;101685.71;;;4.45;62.59
28701;BME280;15877;52.344;16.790;2023-03-01T21:56:02;101688.27;;;4.43;62.29
28701;BME280;15877;52.344;16.790;2023-03-01T21:58:35;101687.98;;;4.41;62.31
28701;BME280;15877;52.344;16.790;2023-03-01T22:01:10;101686.73;;;4.39;62.29
28701;BME280;15877;52.344;16.790;2023-03-01T22:03:43;101682.11;;;4.39;62.32
28701;BME280;15877;52.344;16.790;2023-03-01T22:06:19;101682.45;;;4.37;62.25
28701;BME280;15877;52.344;16.790;2023-03-01T22:08:55;101681.97;;;4.37;62.16
28701;BME280;15877;52.344;16.790;2023-03-01T22:11:28;101682.75;;;4.36;62.21